sensor_id;sensor_type;location;lat;lon;timestamp;P1;durP1;ratioP1;P2;durP2;ratioP2
9200;SDS011;4635;48.686;9.008;2022-09-12T00:00:39;11.07;;;9.80;;
9200;SDS011;4635;48.686;9.008;2022-09-12T00:03:19;14.77;;;10.73;;
9200;SDS011;4635;48.686;9.008;2022-09-12T00:05:54;15.13;;;10.17;;
9200;SDS011;4635;48.686;9.008;2022-09-12T00:08:33;13.80;;;11.73;;
9200;SDS011;4635;48.686;9.008;2022-09-12T00:11:08;14.17;;;11.23;;
9200;SDS011;4635;48.686;9.008;2022-09-12T00:13:42;20.73;;;12.00;;
9200;SDS011;4635;48.686;9.008;2022-09-12T00:16:16;15.43;;;12.00;;
9200;SDS011;4635;48.686;9.008;2022-09-12T00:18:53;12.93;;;11.57;;
9200;SDS011;4635;48.686;9.008;2022-09-12T00:21:27;14.83;;;12.90;;
9200;SDS011;4635;48.686;9.008;2022-09-12T00:24:05;15.17;;;12.50;;
9200;SDS011;4635;48.686;9.008;2022-09-12T00:26:42;14.37;;;11.50;;
9200;SDS011;4635;48.686;9.008;2022-09-12T00:29:16;12.30;;;10.50;;
9200;SDS011;4635;48.686;9.008;2022-09-12T00:31:54;14.40;;;11.30;;
9200;SDS011;4635;48.686;9.008;2022-09-12T00:34:28;17.57;;;12.07;;
9200;SDS011;4635;48.686;9.008;2022-09-12T00:37:01;18.50;;;11.57;;
9200;SDS011;4635;48.686;9.008;2022-09-12T00:39:42;15.20;;;11.70;;
9200;SDS011;4635;48.686;9.008;2022-09-12T00:42:23;13.20;;;11.80;;
9200;SDS011;4635;48.686;9.008;2022-09-12T00:44:58;18.10;;;11.50;;
9200;SDS011;4635;48.686;9.008;2022-09-12T00:47:35;14.07;;;11.70;;
9200;SDS011;4635;48.686;9.008;2022-09-12T00:50:12;15.97;;;12.13;;
9200;SDS011;4635;48.686;9.008;2022-09-12T00:52:46;11.50;;;10.40;;
9200;SDS011;4635;48.686;9.008;2022-09-12T00:55:27;14.40;;;11.47;;
9200;SDS011;4635;48.686;9.008;2022-09-12T00:58:05;15.60;;;12.27;;
9200;SDS011;4635;48.686;9.008;2022-09-12T01:00:49;12.57;;;11.27;;
9200;SDS011;4635;48.686;9.008;2022-09-12T01:03:24;22.37;;;11.60;;
9200;SDS011;4635;48.686;9.008;2022-09-12T01:06:00;16.30;;;12.13;;
9200;SDS011;4635;48.686;9.008;2022-09-12T01:08:39;15.27;;;10.00;;
9200;SDS011;4635;48.686;9.008;2022-09-12T01:11:19;14.47;;;12.03;;
9200;SDS011;4635;48.686;9.008;2022-09-12T01:13:53;15.03;;;11.10;;
9200;SDS011;4635;48.686;9.008;2022-09-12T01:16:24;18.67;;;12.13;;
9200;SDS011;4635;48.686;9.008;2022-09-12T01:19:04;18.10;;;11.07;;
9200;SDS011;4635;48.686;9.008;2022-09-12T01:21:51;14.33;;;11.13;;
9200;SDS011;4635;48.686;9.008;2022-09-12T01:24:36;26.37;;;12.80;;
9200;SDS011;4635;48.686;9.008;2022-09-12T01:27:36;15.80;;;12.27;;
9200;SDS011;4635;48.686;9.008;2022-09-12T01:33:32;16.30;;;13.20;;
9200;SDS011;4635;48.686;9.008;2022-09-12T01:36:20;17.63;;;13.17;;
9200;SDS011;4635;48.686;9.008;2022-09-12T01:39:13;14.80;;;11.03;;
9200;SDS011;4635;48.686;9.008;2022-09-12T01:42:01;16.00;;;11.70;;
9200;SDS011;4635;48.686;9.008;2022-09-12T01:44:43;17.40;;;12.50;;
9200;SDS011;4635;48.686;9.008;2022-09-12T01:47:28;13.30;;;10.53;;
9200;SDS011;4635;48.686;9.008;2022-09-12T01:50:11;12.70;;;10.30;;
9200;SDS011;4635;48.686;9.008;2022-09-12T01:52:49;14.97;;;11.93;;
9200;SDS011;4635;48.686;9.008;2022-09-12T01:55:30;15.43;;;12.33;;
9200;SDS011;4635;48.686;9.008;2022-09-12T01:58:12;16.20;;;12.23;;
9200;SDS011;4635;48.686;9.008;2022-09-12T02:00:53;16.90;;;11.67;;
9200;SDS011;4635;48.686;9.008;2022-09-12T02:03:36;15.03;;;12.10;;
9200;SDS011;4635;48.686;9.008;2022-09-12T02:06:14;13.70;;;11.37;;
9200;SDS011;4635;48.686;9.008;2022-09-12T02:08:55;21.70;;;11.53;;
9200;SDS011;4635;48.686;9.008;2022-09-12T02:11:37;15.77;;;12.93;;
9200;SDS011;4635;48.686;9.008;2022-09-12T02:14:15;24.27;;;11.83;;
9200;SDS011;4635;48.686;9.008;2022-09-12T02:16:54;13.33;;;10.93;;
9200;SDS011;4635;48.686;9.008;2022-09-12T02:19:36;14.47;;;10.93;;
9200;SDS011;4635;48.686;9.008;2022-09-12T02:22:13;14.80;;;12.23;;
9200;SDS011;4635;48.686;9.008;2022-09-12T02:24:51;12.37;;;10.47;;
9200;SDS011;4635;48.686;9.008;2022-09-12T02:27:34;12.63;;;10.13;;
9200;SDS011;4635;48.686;9.008;2022-09-12T02:30:13;19.30;;;11.07;;
9200;SDS011;4635;48.686;9.008;2022-09-12T02:32:51;23.50;;;14.70;;
9200;SDS011;4635;48.686;9.008;2022-09-12T02:35:36;14.90;;;11.10;;
9200;SDS011;4635;48.686;9.008;2022-09-12T02:38:19;15.00;;;11.30;;
9200;SDS011;4635;48.686;9.008;2022-09-12T02:41:02;14.10;;;10.53;;
9200;SDS011;4635;48.686;9.008;2022-09-12T02:43:36;23.70;;;11.20;;
9200;SDS011;4635;48.686;9.008;2022-09-12T02:46:15;15.20;;;11.00;;
9200;SDS011;4635;48.686;9.008;2022-09-12T02:48:52;20.43;;;12.10;;
9200;SDS011;4635;48.686;9.008;2022-09-12T02:51:36;12.33;;;11.03;;
9200;SDS011;4635;48.686;9.008;2022-09-12T02:54:11;15.97;;;12.60;;
9200;SDS011;4635;48.686;9.008;2022-09-12T02:56:52;14.93;;;10.73;;
9200;SDS011;4635;48.686;9.008;2022-09-12T02:59:25;13.23;;;10.83;;
9200;SDS011;4635;48.686;9.008;2022-09-12T03:02:09;11.53;;;9.73;;
9200;SDS011;4635;48.686;9.008;2022-09-12T03:05:04;19.23;;;12.03;;
9200;SDS011;4635;48.686;9.008;2022-09-12T03:10:49;17.00;;;10.60;;
9200;SDS011;4635;48.686;9.008;2022-09-12T03:13:47;12.67;;;10.80;;
9200;SDS011;4635;48.686;9.008;2022-09-12T03:16:34;14.83;;;11.00;;
9200;SDS011;4635;48.686;9.008;2022-09-12T03:19:23;16.60;;;10.40;;
9200;SDS011;4635;48.686;9.008;2022-09-12T03:22:09;13.63;;;10.87;;
9200;SDS011;4635;48.686;9.008;2022-09-12T03:24:52;18.93;;;11.60;;
9200;SDS011;4635;48.686;9.008;2022-09-12T03:27:33;15.60;;;11.63;;
9200;SDS011;4635;48.686;9.008;2022-09-12T03:30:11;15.73;;;11.60;;
9200;SDS011;4635;48.686;9.008;2022-09-12T03:32:51;16.70;;;12.33;;
9200;SDS011;4635;48.686;9.008;2022-09-12T03:35:27;14.63;;;10.80;;
9200;SDS011;4635;48.686;9.008;2022-09-12T03:38:06;18.77;;;10.60;;
9200;SDS011;4635;48.686;9.008;2022-09-12T03:40:48;11.50;;;10.20;;
9200;SDS011;4635;48.686;9.008;2022-09-12T03:43:35;13.87;;;11.40;;
9200;SDS011;4635;48.686;9.008;2022-09-12T03:46:17;17.03;;;10.03;;
9200;SDS011;4635;48.686;9.008;2022-09-12T03:49:04;12.13;;;10.40;;
9200;SDS011;4635;48.686;9.008;2022-09-12T03:51:39;11.30;;;10.07;;
9200;SDS011;4635;48.686;9.008;2022-09-12T03:54:14;12.90;;;10.90;;
9200;SDS011;4635;48.686;9.008;2022-09-12T03:56:51;10.90;;;9.60;;
9200;SDS011;4635;48.686;9.008;2022-09-12T03:59:27;16.40;;;10.83;;
9200;SDS011;4635;48.686;9.008;2022-09-12T04:02:02;15.70;;;10.00;;
9200;SDS011;4635;48.686;9.008;2022-09-12T04:04:43;23.80;;;12.43;;
9200;SDS011;4635;48.686;9.008;2022-09-12T04:07:18;22.73;;;12.87;;
9200;SDS011;4635;48.686;9.008;2022-09-12T04:09:53;12.87;;;10.23;;
9200;SDS011;4635;48.686;9.008;2022-09-12T04:12:34;11.60;;;9.80;;
9200;SDS011;4635;48.686;9.008;2022-09-12T04:15:13;16.40;;;10.23;;
9200;SDS011;4635;48.686;9.008;2022-09-12T04:17:49;13.00;;;10.73;;
9200;SDS011;4635;48.686;9.008;2022-09-12T04:20:24;12.87;;;11.50;;
9200;SDS011;4635;48.686;9.008;2022-09-12T04:23:11;22.13;;;10.17;;
9200;SDS011;4635;48.686;9.008;2022-09-12T04:25:56;14.77;;;9.80;;
9200;SDS011;4635;48.686;9.008;2022-09-12T04:28:37;12.17;;;10.00;;
9200;SDS011;4635;48.686;9.008;2022-09-12T04:31:15;15.10;;;10.90;;
9200;SDS011;4635;48.686;9.008;2022-09-12T04:34:01;10.33;;;9.23;;
9200;SDS011;4635;48.686;9.008;2022-09-12T04:36:39;12.10;;;10.80;;
9200;SDS011;4635;48.686;9.008;2022-09-12T04:39:17;14.53;;;9.80;;
9200;SDS011;4635;48.686;9.008;2022-09-12T04:41:52;14.87;;;11.40;;
9200;SDS011;4635;48.686;9.008;2022-09-12T04:44:28;16.07;;;10.80;;
9200;SDS011;4635;48.686;9.008;2022-09-12T04:47:05;24.30;;;12.30;;
9200;SDS011;4635;48.686;9.008;2022-09-12T04:49:39;13.10;;;10.90;;
9200;SDS011;4635;48.686;9.008;2022-09-12T04:52:23;13.17;;;11.10;;
9200;SDS011;4635;48.686;9.008;2022-09-12T04:55:03;12.63;;;10.97;;
9200;SDS011;4635;48.686;9.008;2022-09-12T04:57:37;24.90;;;10.47;;
9200;SDS011;4635;48.686;9.008;2022-09-12T05:00:11;12.93;;;10.33;;
9200;SDS011;4635;48.686;9.008;2022-09-12T05:02:49;12.60;;;9.77;;
9200;SDS011;4635;48.686;9.008;2022-09-12T05:05:23;12.60;;;9.77;;
9200;SDS011;4635;48.686;9.008;2022-09-12T05:07:59;15.87;;;11.07;;
9200;SDS011;4635;48.686;9.008;2022-09-12T05:10:36;16.10;;;10.63;;
9200;SDS011;4635;48.686;9.008;2022-09-12T05:13:11;12.00;;;10.17;;
9200;SDS011;4635;48.686;9.008;2022-09-12T05:15:58;12.00;;;10.43;;
9200;SDS011;4635;48.686;9.008;2022-09-12T05:18:38;11.83;;;9.63;;
9200;SDS011;4635;48.686;9.008;2022-09-12T05:21:14;17.87;;;11.20;;
9200;SDS011;4635;48.686;9.008;2022-09-12T05:24:01;24.40;;;12.80;;
9200;SDS011;4635;48.686;9.008;2022-09-12T05:26:38;15.50;;;12.20;;
9200;SDS011;4635;48.686;9.008;2022-09-12T05:29:30;22.10;;;12.37;;
9200;SDS011;4635;48.686;9.008;2022-09-12T05:32:20;13.63;;;11.27;;
9200;SDS011;4635;48.686;9.008;2022-09-12T05:35:03;16.30;;;12.50;;
9200;SDS011;4635;48.686;9.008;2022-09-12T05:37:55;18.67;;;14.00;;
9200;SDS011;4635;48.686;9.008;2022-09-12T05:40:31;18.27;;;13.43;;
9200;SDS011;4635;48.686;9.008;2022-09-12T05:43:12;18.80;;;13.77;;
9200;SDS011;4635;48.686;9.008;2022-09-12T05:45:47;18.00;;;12.37;;
9200;SDS011;4635;48.686;9.008;2022-09-12T05:48:27;22.87;;;14.97;;
9200;SDS011;4635;48.686;9.008;2022-09-12T05:51:02;15.40;;;11.23;;
9200;SDS011;4635;48.686;9.008;2022-09-12T05:53:42;18.10;;;13.27;;
9200;SDS011;4635;48.686;9.008;2022-09-12T05:56:19;16.83;;;11.77;;
9200;SDS011;4635;48.686;9.008;2022-09-12T05:58:58;19.27;;;12.47;;
9200;SDS011;4635;48.686;9.008;2022-09-12T06:01:44;24.30;;;11.53;;
9200;SDS011;4635;48.686;9.008;2022-09-12T06:04:25;13.77;;;11.13;;
9200;SDS011;4635;48.686;9.008;2022-09-12T06:07:07;18.60;;;11.20;;
9200;SDS011;4635;48.686;9.008;2022-09-12T06:09:46;15.70;;;12.70;;
9200;SDS011;4635;48.686;9.008;2022-09-12T06:12:24;15.00;;;12.00;;
9200;SDS011;4635;48.686;9.008;2022-09-12T06:15:01;22.17;;;13.33;;
9200;SDS011;4635;48.686;9.008;2022-09-12T06:17:39;16.83;;;13.00;;
9200;SDS011;4635;48.686;9.008;2022-09-12T06:20:22;19.03;;;13.90;;
9200;SDS011;4635;48.686;9.008;2022-09-12T06:23:01;22.80;;;14.80;;
9200;SDS011;4635;48.686;9.008;2022-09-12T06:25:40;19.87;;;14.83;;
9200;SDS011;4635;48.686;9.008;2022-09-12T06:28:31;15.50;;;12.50;;
9200;SDS011;4635;48.686;9.008;2022-09-12T06:31:09;27.03;;;16.63;;
9200;SDS011;4635;48.686;9.008;2022-09-12T06:34:00;28.93;;;14.80;;
9200;SDS011;4635;48.686;9.008;2022-09-12T06:36:50;24.70;;;14.33;;
9200;SDS011;4635;48.686;9.008;2022-09-12T06:39:40;19.07;;;13.40;;
9200;SDS011;4635;48.686;9.008;2022-09-12T06:42:17;16.60;;;12.60;;
9200;SDS011;4635;48.686;9.008;2022-09-12T06:45:01;20.90;;;14.03;;
9200;SDS011;4635;48.686;9.008;2022-09-12T06:47:42;16.57;;;13.47;;
9200;SDS011;4635;48.686;9.008;2022-09-12T06:50:39;17.13;;;13.47;;
9200;SDS011;4635;48.686;9.008;2022-09-12T06:53:21;19.80;;;13.57;;
9200;SDS011;4635;48.686;9.008;2022-09-12T06:56:04;16.53;;;12.03;;
9200;SDS011;4635;48.686;9.008;2022-09-12T06:58:50;27.03;;;13.17;;
9200;SDS011;4635;48.686;9.008;2022-09-12T07:01:44;17.80;;;10.80;;
9200;SDS011;4635;48.686;9.008;2022-09-12T07:04:19;22.53;;;11.70;;
9200;SDS011;4635;48.686;9.008;2022-09-12T07:06:56;19.33;;;11.50;;
9200;SDS011;4635;48.686;9.008;2022-09-12T07:09:32;20.73;;;12.97;;
9200;SDS011;4635;48.686;9.008;2022-09-12T07:12:07;15.03;;;11.43;;
9200;SDS011;4635;48.686;9.008;2022-09-12T07:14:43;17.53;;;10.40;;
9200;SDS011;4635;48.686;9.008;2022-09-12T07:17:18;21.43;;;12.27;;
9200;SDS011;4635;48.686;9.008;2022-09-12T07:19:50;16.37;;;12.43;;
9200;SDS011;4635;48.686;9.008;2022-09-12T07:22:22;13.83;;;11.23;;
9200;SDS011;4635;48.686;9.008;2022-09-12T07:25:09;14.77;;;9.10;;
9200;SDS011;4635;48.686;9.008;2022-09-12T07:27:48;17.47;;;11.20;;
9200;SDS011;4635;48.686;9.008;2022-09-12T07:30:26;12.30;;;11.00;;
9200;SDS011;4635;48.686;9.008;2022-09-12T07:33:07;15.57;;;9.27;;
9200;SDS011;4635;48.686;9.008;2022-09-12T07:35:51;22.43;;;13.90;;
9200;SDS011;4635;48.686;9.008;2022-09-12T07:38:31;12.67;;;10.30;;
9200;SDS011;4635;48.686;9.008;2022-09-12T07:41:25;18.83;;;9.20;;
9200;SDS011;4635;48.686;9.008;2022-09-12T07:44:19;11.80;;;9.23;;
9200;SDS011;4635;48.686;9.008;2022-09-12T07:47:11;9.43;;;7.67;;
9200;SDS011;4635;48.686;9.008;2022-09-12T07:52:46;8.73;;;6.17;;
9200;SDS011;4635;48.686;9.008;2022-09-12T07:55:19;3.83;;;3.53;;
9200;SDS011;4635;48.686;9.008;2022-09-12T13:23:39;4.50;;;1.10;;
9200;SDS011;4635;48.686;9.008;2022-09-12T13:30:05;2.53;;;1.40;;
9200;SDS011;4635;48.686;9.008;2022-09-12T13:33:08;1.73;;;1.33;;
9200;SDS011;4635;48.686;9.008;2022-09-12T13:36:12;2.70;;;0.90;;
9200;SDS011;4635;48.686;9.008;2022-09-12T13:39:40;5.60;;;3.90;;
9200;SDS011;4635;48.686;9.008;2022-09-12T13:42:47;0.90;;;0.80;;
9200;SDS011;4635;48.686;9.008;2022-09-12T13:46:07;1.03;;;0.80;;
9200;SDS011;4635;48.686;9.008;2022-09-12T13:49:34;2.20;;;2.00;;
9200;SDS011;4635;48.686;9.008;2022-09-12T13:52:20;1.90;;;1.10;;
9200;SDS011;4635;48.686;9.008;2022-09-12T13:55:17;4.70;;;1.03;;
9200;SDS011;4635;48.686;9.008;2022-09-12T13:58:03;1.20;;;1.10;;
9200;SDS011;4635;48.686;9.008;2022-09-12T14:01:01;15.10;;;1.90;;
9200;SDS011;4635;48.686;9.008;2022-09-12T14:04:13;3.80;;;1.63;;
9200;SDS011;4635;48.686;9.008;2022-09-12T14:07:16;2.00;;;1.80;;
9200;SDS011;4635;48.686;9.008;2022-09-12T14:10:04;2.10;;;1.97;;
9200;SDS011;4635;48.686;9.008;2022-09-12T14:26:02;3.50;;;1.43;;
9200;SDS011;4635;48.686;9.008;2022-09-12T14:32:19;4.30;;;1.30;;
9200;SDS011;4635;48.686;9.008;2022-09-12T14:39:12;8.80;;;1.00;;
9200;SDS011;4635;48.686;9.008;2022-09-12T15:05:27;5.23;;;1.30;;
9200;SDS011;4635;48.686;9.008;2022-09-12T15:08:29;55.93;;;43.43;;
9200;SDS011;4635;48.686;9.008;2022-09-12T15:11:18;3.47;;;3.17;;
9200;SDS011;4635;48.686;9.008;2022-09-12T15:14:12;3.80;;;1.37;;
9200;SDS011;4635;48.686;9.008;2022-09-12T15:16:57;7.10;;;1.50;;
9200;SDS011;4635;48.686;9.008;2022-09-12T15:19:35;1.30;;;1.10;;
9200;SDS011;4635;48.686;9.008;2022-09-12T15:25:36;1.83;;;1.73;;
9200;SDS011;4635;48.686;9.008;2022-09-12T15:28:42;6.57;;;4.60;;
9200;SDS011;4635;48.686;9.008;2022-09-12T15:31:44;2.33;;;1.80;;
9200;SDS011;4635;48.686;9.008;2022-09-12T15:34:39;5.80;;;1.57;;
9200;SDS011;4635;48.686;9.008;2022-09-12T15:51:09;1.93;;;1.30;;
9200;SDS011;4635;48.686;9.008;2022-09-12T15:54:03;1.70;;;1.30;;
9200;SDS011;4635;48.686;9.008;2022-09-12T15:56:53;1.10;;;1.00;;
9200;SDS011;4635;48.686;9.008;2022-09-12T16:00:25;1.93;;;1.00;;
9200;SDS011;4635;48.686;9.008;2022-09-12T16:06:30;2.90;;;1.37;;
9200;SDS011;4635;48.686;9.008;2022-09-12T16:09:19;1.50;;;1.40;;
9200;SDS011;4635;48.686;9.008;2022-09-12T16:12:12;2.10;;;1.90;;
9200;SDS011;4635;48.686;9.008;2022-09-12T16:15:11;3.00;;;1.97;;
9200;SDS011;4635;48.686;9.008;2022-09-12T16:18:16;1.67;;;1.57;;
9200;SDS011;4635;48.686;9.008;2022-09-12T16:21:30;2.43;;;2.23;;
9200;SDS011;4635;48.686;9.008;2022-09-12T16:24:41;1.67;;;1.50;;
9200;SDS011;4635;48.686;9.008;2022-09-12T16:27:34;1.53;;;1.43;;
9200;SDS011;4635;48.686;9.008;2022-09-12T16:30:31;2.40;;;1.43;;
9200;SDS011;4635;48.686;9.008;2022-09-12T16:33:18;3.07;;;1.80;;
9200;SDS011;4635;48.686;9.008;2022-09-12T16:36:09;1.30;;;1.20;;
9200;SDS011;4635;48.686;9.008;2022-09-12T16:39:09;2.00;;;1.33;;
9200;SDS011;4635;48.686;9.008;2022-09-12T16:42:15;3.03;;;1.60;;
9200;SDS011;4635;48.686;9.008;2022-09-12T16:45:07;4.70;;;2.17;;
9200;SDS011;4635;48.686;9.008;2022-09-12T16:48:05;3.30;;;2.97;;
9200;SDS011;4635;48.686;9.008;2022-09-12T16:50:55;10.63;;;2.63;;
9200;SDS011;4635;48.686;9.008;2022-09-12T16:53:49;1.53;;;1.43;;
9200;SDS011;4635;48.686;9.008;2022-09-12T17:15:51;2.33;;;2.13;;
9200;SDS011;4635;48.686;9.008;2022-09-12T17:18:31;1.27;;;1.17;;
9200;SDS011;4635;48.686;9.008;2022-09-12T17:21:16;2.03;;;1.93;;
9200;SDS011;4635;48.686;9.008;2022-09-12T17:23:57;2.40;;;1.47;;
9200;SDS011;4635;48.686;9.008;2022-09-12T17:26:43;4.70;;;2.23;;
9200;SDS011;4635;48.686;9.008;2022-09-12T17:32:28;5.10;;;1.37;;
9200;SDS011;4635;48.686;9.008;2022-09-12T17:35:02;1.70;;;1.60;;
9200;SDS011;4635;48.686;9.008;2022-09-12T17:37:51;5.57;;;1.70;;
9200;SDS011;4635;48.686;9.008;2022-09-12T17:40:33;9.63;;;1.93;;
9200;SDS011;4635;48.686;9.008;2022-09-12T17:43:23;3.80;;;2.90;;
9200;SDS011;4635;48.686;9.008;2022-09-12T17:52:54;1.97;;;1.87;;
9200;SDS011;4635;48.686;9.008;2022-09-12T17:55:39;9.00;;;3.20;;
9200;SDS011;4635;48.686;9.008;2022-09-12T17:58:16;2.40;;;1.53;;
9200;SDS011;4635;48.686;9.008;2022-09-12T18:01:02;3.47;;;2.27;;
9200;SDS011;4635;48.686;9.008;2022-09-12T18:03:52;2.43;;;1.80;;
9200;SDS011;4635;48.686;9.008;2022-09-12T18:06:34;3.40;;;2.87;;
9200;SDS011;4635;48.686;9.008;2022-09-12T18:09:14;2.33;;;2.13;;
9200;SDS011;4635;48.686;9.008;2022-09-12T18:11:53;3.87;;;2.30;;
9200;SDS011;4635;48.686;9.008;2022-09-12T18:14:38;5.43;;;2.07;;
9200;SDS011;4635;48.686;9.008;2022-09-12T18:17:12;2.80;;;1.90;;
9200;SDS011;4635;48.686;9.008;2022-09-12T18:20:18;5.00;;;2.60;;
9200;SDS011;4635;48.686;9.008;2022-09-12T18:23:11;5.07;;;2.50;;
9200;SDS011;4635;48.686;9.008;2022-09-12T18:26:01;6.93;;;4.80;;
9200;SDS011;4635;48.686;9.008;2022-09-12T18:28:47;4.30;;;2.73;;
9200;SDS011;4635;48.686;9.008;2022-09-12T18:31:27;10.03;;;2.50;;
9200;SDS011;4635;48.686;9.008;2022-09-12T18:34:13;1.90;;;1.80;;
9200;SDS011;4635;48.686;9.008;2022-09-12T18:39:58;4.30;;;2.47;;
9200;SDS011;4635;48.686;9.008;2022-09-12T18:42:32;4.90;;;2.63;;
9200;SDS011;4635;48.686;9.008;2022-09-12T18:45:10;3.00;;;2.70;;
9200;SDS011;4635;48.686;9.008;2022-09-12T18:47:54;3.10;;;2.30;;
9200;SDS011;4635;48.686;9.008;2022-09-12T18:50:43;2.80;;;2.50;;
9200;SDS011;4635;48.686;9.008;2022-09-12T18:53:39;7.50;;;3.83;;
9200;SDS011;4635;48.686;9.008;2022-09-12T18:56:19;5.63;;;2.80;;
9200;SDS011;4635;48.686;9.008;2022-09-12T18:59:12;16.30;;;5.20;;
9200;SDS011;4635;48.686;9.008;2022-09-12T19:01:59;19.27;;;9.70;;
9200;SDS011;4635;48.686;9.008;2022-09-12T19:05:05;18.37;;;6.87;;
9200;SDS011;4635;48.686;9.008;2022-09-12T19:08:00;3.00;;;1.87;;
9200;SDS011;4635;48.686;9.008;2022-09-12T19:11:01;4.73;;;2.60;;
9200;SDS011;4635;48.686;9.008;2022-09-12T19:13:59;4.37;;;3.10;;
9200;SDS011;4635;48.686;9.008;2022-09-12T19:16:37;5.87;;;2.23;;
9200;SDS011;4635;48.686;9.008;2022-09-12T19:19:16;2.13;;;1.77;;
9200;SDS011;4635;48.686;9.008;2022-09-12T19:21:55;2.00;;;1.90;;
9200;SDS011;4635;48.686;9.008;2022-09-12T19:24:39;2.63;;;2.30;;
9200;SDS011;4635;48.686;9.008;2022-09-12T19:27:35;2.63;;;2.10;;
9200;SDS011;4635;48.686;9.008;2022-09-12T19:36:52;2.33;;;2.00;;
9200;SDS011;4635;48.686;9.008;2022-09-12T19:39:36;2.17;;;1.90;;
9200;SDS011;4635;48.686;9.008;2022-09-12T19:42:14;5.20;;;2.00;;
9200;SDS011;4635;48.686;9.008;2022-09-12T19:44:45;4.03;;;1.97;;
9200;SDS011;4635;48.686;9.008;2022-09-12T19:47:26;1.70;;;1.60;;
9200;SDS011;4635;48.686;9.008;2022-09-12T19:50:15;1.60;;;1.50;;
9200;SDS011;4635;48.686;9.008;2022-09-12T19:53:10;2.20;;;2.00;;
9200;SDS011;4635;48.686;9.008;2022-09-12T19:55:57;5.40;;;2.30;;
9200;SDS011;4635;48.686;9.008;2022-09-12T19:58:39;7.17;;;2.47;;
9200;SDS011;4635;48.686;9.008;2022-09-12T20:01:21;2.30;;;1.53;;
9200;SDS011;4635;48.686;9.008;2022-09-12T20:04:03;2.27;;;1.67;;
9200;SDS011;4635;48.686;9.008;2022-09-12T20:06:49;2.43;;;2.20;;
9200;SDS011;4635;48.686;9.008;2022-09-12T20:13:18;2.07;;;1.70;;
9200;SDS011;4635;48.686;9.008;2022-09-12T20:15:50;4.30;;;1.60;;
9200;SDS011;4635;48.686;9.008;2022-09-12T20:18:23;1.80;;;1.60;;
9200;SDS011;4635;48.686;9.008;2022-09-12T20:21:09;2.53;;;2.17;;
9200;SDS011;4635;48.686;9.008;2022-09-12T20:23:45;3.67;;;2.07;;
9200;SDS011;4635;48.686;9.008;2022-09-12T20:26:30;2.50;;;2.27;;
9200;SDS011;4635;48.686;9.008;2022-09-12T20:29:23;10.53;;;2.40;;
9200;SDS011;4635;48.686;9.008;2022-09-12T20:32:02;7.80;;;2.93;;
9200;SDS011;4635;48.686;9.008;2022-09-12T20:34:48;3.73;;;3.40;;
9200;SDS011;4635;48.686;9.008;2022-09-12T20:37:35;3.73;;;2.77;;
9200;SDS011;4635;48.686;9.008;2022-09-12T20:40:11;3.83;;;3.10;;
9200;SDS011;4635;48.686;9.008;2022-09-12T20:42:50;2.70;;;2.50;;
9200;SDS011;4635;48.686;9.008;2022-09-12T20:45:32;7.90;;;2.47;;
9200;SDS011;4635;48.686;9.008;2022-09-12T20:48:10;3.57;;;2.90;;
9200;SDS011;4635;48.686;9.008;2022-09-12T20:50:47;3.30;;;2.83;;
9200;SDS011;4635;48.686;9.008;2022-09-12T20:53:29;3.30;;;2.40;;
9200;SDS011;4635;48.686;9.008;2022-09-12T20:56:07;4.20;;;2.33;;
9200;SDS011;4635;48.686;9.008;2022-09-12T20:58:47;3.03;;;2.73;;
9200;SDS011;4635;48.686;9.008;2022-09-12T21:01:37;3.83;;;2.30;;
9200;SDS011;4635;48.686;9.008;2022-09-12T21:04:18;5.53;;;2.47;;
9200;SDS011;4635;48.686;9.008;2022-09-12T21:06:52;3.00;;;2.70;;
9200;SDS011;4635;48.686;9.008;2022-09-12T21:09:24;2.60;;;2.40;;
9200;SDS011;4635;48.686;9.008;2022-09-12T21:12:03;4.63;;;2.23;;
9200;SDS011;4635;48.686;9.008;2022-09-12T21:14:38;3.73;;;2.93;;
9200;SDS011;4635;48.686;9.008;2022-09-12T21:17:17;5.70;;;2.20;;
9200;SDS011;4635;48.686;9.008;2022-09-12T21:19:51;5.53;;;2.33;;
9200;SDS011;4635;48.686;9.008;2022-09-12T21:22:24;2.43;;;2.10;;
9200;SDS011;4635;48.686;9.008;2022-09-12T21:25:04;5.27;;;2.83;;
9200;SDS011;4635;48.686;9.008;2022-09-12T21:27:37;3.63;;;2.30;;
9200;SDS011;4635;48.686;9.008;2022-09-12T21:30:09;2.67;;;2.40;;
9200;SDS011;4635;48.686;9.008;2022-09-12T21:32:49;2.93;;;2.20;;
9200;SDS011;4635;48.686;9.008;2022-09-12T21:35:25;3.73;;;2.27;;
9200;SDS011;4635;48.686;9.008;2022-09-12T21:38:00;5.87;;;2.50;;
9200;SDS011;4635;48.686;9.008;2022-09-12T21:40:38;3.10;;;2.80;;
9200;SDS011;4635;48.686;9.008;2022-09-12T21:43:13;5.00;;;2.90;;
9200;SDS011;4635;48.686;9.008;2022-09-12T21:45:49;4.90;;;2.30;;
9200;SDS011;4635;48.686;9.008;2022-09-12T21:48:31;2.90;;;2.70;;
9200;SDS011;4635;48.686;9.008;2022-09-12T21:51:03;3.13;;;2.87;;
9200;SDS011;4635;48.686;9.008;2022-09-12T21:53:34;5.40;;;2.73;;
9200;SDS011;4635;48.686;9.008;2022-09-12T21:56:06;4.20;;;3.10;;
9200;SDS011;4635;48.686;9.008;2022-09-12T21:58:44;2.70;;;2.50;;
9200;SDS011;4635;48.686;9.008;2022-09-12T22:01:17;4.30;;;3.17;;
9200;SDS011;4635;48.686;9.008;2022-09-12T22:04:03;2.40;;;2.20;;
9200;SDS011;4635;48.686;9.008;2022-09-12T22:06:43;2.60;;;2.40;;
9200;SDS011;4635;48.686;9.008;2022-09-12T22:09:22;4.13;;;2.63;;
9200;SDS011;4635;48.686;9.008;2022-09-12T22:12:01;2.83;;;2.53;;
9200;SDS011;4635;48.686;9.008;2022-09-12T22:14:45;3.33;;;2.53;;
9200;SDS011;4635;48.686;9.008;2022-09-12T22:17:32;2.33;;;2.23;;
9200;SDS011;4635;48.686;9.008;2022-09-12T22:20:18;5.27;;;2.30;;
9200;SDS011;4635;48.686;9.008;2022-09-12T22:22:57;6.33;;;2.20;;
9200;SDS011;4635;48.686;9.008;2022-09-12T22:25:45;2.27;;;2.03;;
9200;SDS011;4635;48.686;9.008;2022-09-12T22:28:23;5.90;;;1.60;;
9200;SDS011;4635;48.686;9.008;2022-09-12T22:30:57;3.90;;;2.30;;
9200;SDS011;4635;48.686;9.008;2022-09-12T22:33:39;1.87;;;1.73;;
9200;SDS011;4635;48.686;9.008;2022-09-12T22:36:27;2.40;;;2.20;;
9200;SDS011;4635;48.686;9.008;2022-09-12T22:39:05;3.53;;;2.10;;
9200;SDS011;4635;48.686;9.008;2022-09-12T22:41:42;2.37;;;2.10;;
9200;SDS011;4635;48.686;9.008;2022-09-12T22:44:15;4.30;;;1.63;;
9200;SDS011;4635;48.686;9.008;2022-09-12T22:46:52;1.90;;;1.70;;
9200;SDS011;4635;48.686;9.008;2022-09-12T22:49:26;2.03;;;1.57;;
9200;SDS011;4635;48.686;9.008;2022-09-12T22:52:17;4.90;;;1.70;;
9200;SDS011;4635;48.686;9.008;2022-09-12T22:54:53;2.03;;;1.80;;
9200;SDS011;4635;48.686;9.008;2022-09-12T22:57:35;1.73;;;1.60;;
9200;SDS011;4635;48.686;9.008;2022-09-12T23:00:17;4.40;;;1.50;;
9200;SDS011;4635;48.686;9.008;2022-09-12T23:02:53;1.60;;;1.47;;
9200;SDS011;4635;48.686;9.008;2022-09-12T23:05:35;2.23;;;1.60;;
9200;SDS011;4635;48.686;9.008;2022-09-12T23:08:14;3.70;;;1.53;;
9200;SDS011;4635;48.686;9.008;2022-09-12T23:10:50;3.47;;;1.43;;
9200;SDS011;4635;48.686;9.008;2022-09-12T23:13:35;3.60;;;1.90;;
9200;SDS011;4635;48.686;9.008;2022-09-12T23:16:21;3.53;;;2.30;;
9200;SDS011;4635;48.686;9.008;2022-09-12T23:19:07;2.40;;;2.17;;
9200;SDS011;4635;48.686;9.008;2022-09-12T23:21:46;2.00;;;1.23;;
9200;SDS011;4635;48.686;9.008;2022-09-12T23:24:27;4.07;;;1.87;;
9200;SDS011;4635;48.686;9.008;2022-09-12T23:27:05;4.30;;;1.67;;
9200;SDS011;4635;48.686;9.008;2022-09-12T23:29:41;5.00;;;1.90;;
9200;SDS011;4635;48.686;9.008;2022-09-12T23:32:20;3.77;;;1.80;;
9200;SDS011;4635;48.686;9.008;2022-09-12T23:34:55;2.20;;;2.10;;
9200;SDS011;4635;48.686;9.008;2022-09-12T23:37:32;1.53;;;1.43;;
9200;SDS011;4635;48.686;9.008;2022-09-12T23:40:17;3.67;;;2.30;;
9200;SDS011;4635;48.686;9.008;2022-09-12T23:42:58;3.20;;;2.00;;
9200;SDS011;4635;48.686;9.008;2022-09-12T23:45:34;2.23;;;2.00;;
9200;SDS011;4635;48.686;9.008;2022-09-12T23:48:09;2.30;;;2.10;;
9200;SDS011;4635;48.686;9.008;2022-09-12T23:50:47;6.80;;;2.20;;
9200;SDS011;4635;48.686;9.008;2022-09-12T23:53:22;2.03;;;1.93;;
9200;SDS011;4635;48.686;9.008;2022-09-12T23:56:03;3.00;;;1.60;;
9200;SDS011;4635;48.686;9.008;2022-09-12T23:58:37;3.03;;;1.90;;
